createdAt,value
2023-01-13T00:01:47.464Z,0.40
2023-01-13T00:04:15.632Z,0.80
2023-01-13T00:06:42.604Z,0.40
2023-01-13T00:09:09.581Z,0.60
2023-01-13T00:11:36.853Z,0.50
2023-01-13T00:14:03.772Z,0.20
2023-01-13T00:16:32.181Z,0.40
2023-01-13T00:18:59.252Z,0.60
2023-01-13T00:21:26.174Z,0.50
2023-01-13T00:23:54.874Z,0.68
2023-01-13T00:26:26.583Z,1.45
2023-01-13T00:28:58.702Z,3.22
2023-01-13T00:31:32.194Z,2.63
2023-01-13T00:34:01.321Z,2.15
2023-01-13T00:36:29.305Z,2.25
2023-01-13T00:38:57.068Z,2.40
2023-01-13T00:41:26.934Z,2.45
2023-01-13T00:43:53.857Z,2.37
2023-01-13T00:46:24.114Z,2.50
2023-01-13T00:48:51.472Z,3.20
2023-01-13T00:51:20.463Z,2.53
2023-01-13T00:53:51.248Z,2.30
2023-01-13T00:56:34.070Z,2.20
2023-01-13T00:59:07.093Z,2.13
2023-01-13T01:01:34.112Z,1.50
2023-01-13T01:04:04.978Z,1.50
2023-01-13T01:06:35.518Z,1.08
2023-01-13T01:09:02.598Z,1.30
2023-01-13T01:11:31.640Z,1.13
2023-01-13T01:14:01.482Z,1.38
2023-01-13T01:16:33.178Z,1.40
2023-01-13T01:19:02.223Z,1.42
2023-01-13T01:21:29.845Z,1.73
2023-01-13T01:27:17.005Z,1.73
2023-01-13T01:29:47.649Z,1.80
2023-01-13T01:32:18.017Z,0.90
2023-01-13T01:34:45.479Z,1.20
2023-01-13T01:37:13.051Z,1.40
2023-01-13T01:39:41.510Z,1.25
2023-01-13T01:42:16.445Z,1.02
2023-01-13T01:44:58.763Z,1.05
2023-01-13T01:47:28.324Z,1.30
2023-01-13T01:49:57.443Z,1.30
2023-01-13T01:52:56.943Z,1.02
2023-01-13T01:55:29.970Z,1.45
2023-01-13T01:58:19.007Z,1.05
2023-01-13T02:00:48.520Z,1.13
2023-01-13T02:03:19.046Z,1.50
2023-01-13T02:05:46.553Z,1.70
2023-01-13T02:08:19.502Z,1.70
2023-01-13T02:10:53.265Z,1.88
2023-01-13T02:13:24.010Z,1.83
2023-01-13T02:16:19.692Z,2.20
2023-01-13T02:19:36.015Z,2.20
2023-01-13T02:22:28.862Z,2.33
2023-01-13T02:25:22.735Z,2.55
2023-01-13T02:28:11.455Z,4.40
2023-01-13T02:31:07.288Z,3.50
2023-01-13T02:33:50.747Z,3.05
2023-01-13T02:36:28.966Z,3.22
2023-01-13T02:39:25.449Z,2.80
2023-01-13T02:42:02.769Z,2.20
2023-01-13T02:44:38.676Z,2.20
2023-01-13T02:47:10.257Z,2.20
2023-01-13T02:50:05.836Z,2.60
2023-01-13T02:52:44.641Z,2.03
2023-01-13T02:55:20.208Z,0.67
2023-01-13T02:57:50.149Z,2.00
2023-01-13T03:00:23.978Z,1.58
2023-01-13T03:02:51.498Z,0.90
2023-01-13T03:05:21.489Z,1.45
2023-01-13T03:07:52.492Z,0.80
2023-01-13T03:10:46.966Z,0.85
2023-01-13T03:13:50.456Z,0.65
2023-01-13T03:16:52.048Z,1.00
2023-01-13T03:19:31.159Z,1.20
2023-01-13T03:22:17.022Z,1.00
2023-01-13T03:25:07.525Z,0.73
2023-01-13T03:27:58.414Z,0.95
2023-01-13T03:30:38.212Z,0.60
2023-01-13T03:33:19.120Z,0.35
2023-01-13T03:35:50.739Z,0.40
2023-01-13T03:38:39.368Z,0.20
2023-01-13T03:41:13.555Z,0.15
2023-01-13T03:43:49.446Z,0.13
2023-01-13T03:46:24.486Z,0.28
2023-01-13T03:51:57.492Z,0.03
2023-01-13T03:54:31.325Z,0.20
2023-01-13T03:57:30.125Z,0.10
2023-01-13T04:00:31.968Z,0.20
2023-01-13T04:03:09.046Z,0.10
2023-01-13T04:05:42.180Z,0.10
2023-01-13T04:08:28.184Z,0.10
2023-01-13T04:11:09.785Z,0.20
2023-01-13T04:13:44.965Z,0.20
2023-01-13T04:16:12.845Z,0.20
2023-01-13T04:21:35.945Z,0.20
2023-01-13T04:24:02.784Z,0.10
2023-01-13T04:26:32.002Z,1.00
2023-01-13T04:28:58.742Z,1.27
2023-01-13T04:31:25.673Z,1.20
2023-01-13T04:33:52.957Z,1.38
2023-01-13T04:36:19.773Z,1.48
2023-01-13T04:38:48.049Z,1.30
2023-01-13T04:41:15.333Z,1.50
2023-01-13T04:43:44.953Z,0.95
2023-01-13T04:46:13.639Z,1.27
2023-01-13T04:48:41.930Z,1.58
2023-01-13T04:51:12.369Z,1.08
2023-01-13T04:53:39.968Z,1.40
2023-01-13T04:56:07.679Z,1.80
2023-01-13T05:01:53.095Z,2.00
2023-01-13T05:04:19.890Z,1.77
2023-01-13T05:06:47.493Z,2.20
2023-01-13T05:09:14.420Z,1.80
2023-01-13T05:11:42.363Z,2.13
2023-01-13T05:14:09.541Z,2.13
2023-01-13T05:16:36.978Z,1.90
2023-01-13T05:19:03.900Z,1.90
2023-01-13T05:21:30.719Z,1.90
2023-01-13T05:23:57.473Z,1.83
2023-01-13T05:26:24.439Z,2.05
2023-01-13T05:28:51.172Z,2.17
2023-01-13T05:31:18.045Z,2.97
2023-01-13T05:33:46.056Z,1.92
2023-01-13T05:36:12.951Z,2.40
2023-01-13T05:38:39.722Z,2.45
2023-01-13T05:41:32.985Z,2.10
2023-01-13T05:44:00.395Z,2.23
2023-01-13T05:46:27.446Z,2.10
2023-01-13T05:48:54.259Z,2.00
2023-01-13T05:51:22.449Z,2.08
2023-01-13T05:53:49.187Z,2.40
2023-01-13T05:56:16.343Z,1.70
2023-01-13T05:58:43.087Z,1.95
2023-01-13T06:01:10.524Z,1.90
2023-01-13T06:03:38.291Z,1.70
2023-01-13T06:06:05.982Z,1.60
2023-01-13T06:08:32.947Z,1.77
2023-01-13T06:10:59.889Z,1.67
2023-01-13T06:13:27.043Z,1.55
2023-01-13T06:15:58.429Z,1.50
2023-01-13T06:18:25.863Z,1.50
2023-01-13T06:20:52.694Z,1.77
2023-01-13T06:23:19.523Z,1.50
2023-01-13T06:25:46.401Z,1.48
2023-01-13T06:28:13.200Z,1.50
2023-01-13T06:30:48.039Z,1.38
2023-01-13T06:33:24.741Z,1.60
2023-01-13T06:35:57.130Z,1.40
2023-01-13T06:38:26.454Z,1.60
2023-01-13T06:40:53.797Z,1.60
2023-01-13T06:43:22.173Z,1.65
2023-01-13T06:45:56.727Z,2.20
2023-01-13T06:48:30.003Z,1.80
2023-01-13T06:50:57.432Z,1.90
2023-01-13T06:53:24.154Z,2.00
2023-01-13T06:55:53.093Z,1.98
2023-01-13T06:58:19.806Z,2.17
2023-01-13T07:00:48.560Z,2.45
2023-01-13T07:03:17.148Z,2.10
2023-01-13T07:06:08.801Z,2.03
2023-01-13T07:08:36.953Z,2.33
2023-01-13T07:11:04.011Z,2.30
2023-01-13T07:13:32.125Z,2.28
2023-01-13T07:16:01.632Z,2.40
2023-01-13T07:18:36.153Z,3.10
2023-01-13T07:21:06.737Z,2.92
2023-01-13T07:23:36.923Z,3.73
2023-01-13T07:26:04.919Z,3.72
2023-01-13T07:28:33.125Z,3.90
2023-01-13T07:31:04.002Z,3.92
2023-01-13T07:33:30.860Z,3.08
2023-01-13T07:36:02.217Z,3.03
2023-01-13T07:38:31.821Z,3.20
2023-01-13T07:40:58.729Z,3.35
2023-01-13T07:43:25.545Z,3.28
2023-01-13T07:46:17.964Z,2.75
2023-01-13T07:48:46.568Z,2.47
2023-01-13T07:51:13.375Z,2.50
2023-01-13T07:53:40.458Z,2.00
2023-01-13T07:56:08.185Z,2.00
2023-01-13T07:58:37.023Z,1.65
2023-01-13T08:01:09.355Z,2.07
2023-01-13T08:03:36.473Z,2.00
2023-01-13T08:06:03.938Z,1.98
2023-01-13T08:08:30.772Z,1.67
2023-01-13T08:11:03.493Z,1.85
2023-01-13T08:13:30.999Z,1.80
2023-01-13T08:16:04.957Z,1.60
2023-01-13T08:18:34.057Z,1.50
2023-01-13T08:21:04.092Z,1.80
2023-01-13T08:23:56.978Z,2.35
2023-01-13T08:26:24.523Z,2.00
2023-01-13T08:28:52.041Z,2.08
2023-01-13T08:31:45.000Z,2.40
2023-01-13T08:34:12.374Z,2.35
2023-01-13T08:36:39.136Z,2.38
2023-01-13T08:39:07.060Z,2.10
2023-01-13T08:41:35.030Z,2.70
2023-01-13T08:44:02.626Z,2.70
2023-01-13T08:46:30.232Z,2.90
2023-01-13T08:48:57.616Z,2.85
2023-01-13T08:51:26.613Z,2.73
2023-01-13T08:53:54.016Z,2.67
2023-01-13T08:56:22.502Z,2.53
2023-01-13T08:58:49.257Z,2.45
2023-01-13T09:01:23.124Z,2.50
2023-01-13T09:03:54.234Z,2.50
2023-01-13T09:06:22.083Z,2.65
2023-01-13T09:08:48.869Z,2.30
2023-01-13T09:11:26.290Z,2.15
2023-01-13T09:13:53.441Z,2.50
2023-01-13T09:16:21.511Z,2.87
2023-01-13T09:18:49.978Z,2.55
2023-01-13T09:21:18.685Z,2.50
2023-01-13T09:23:45.976Z,2.40
2023-01-13T09:26:16.618Z,2.60
2023-01-13T09:28:45.972Z,1.77
2023-01-13T09:31:14.279Z,2.72
2023-01-13T09:33:46.041Z,3.05
2023-01-13T09:36:12.890Z,2.38
2023-01-13T09:38:39.959Z,2.50
2023-01-13T09:41:07.157Z,2.67
2023-01-13T09:43:39.124Z,2.97
2023-01-13T09:46:14.991Z,3.40
2023-01-13T09:49:14.504Z,3.22
2023-01-13T09:51:51.980Z,3.47
2023-01-13T09:54:28.713Z,3.73
2023-01-13T09:56:59.999Z,3.58
2023-01-13T09:59:31.243Z,4.05
2023-01-13T10:02:04.976Z,3.47
2023-01-13T10:04:33.657Z,4.15
2023-01-13T10:07:02.987Z,3.80
2023-01-13T10:09:58.487Z,4.25
2023-01-13T10:12:27.000Z,4.28
2023-01-13T10:14:56.075Z,3.78
2023-01-13T10:17:46.037Z,4.47
2023-01-13T10:20:43.564Z,4.07
2023-01-13T10:23:39.024Z,4.20
2023-01-13T10:26:22.583Z,4.55
2023-01-13T10:28:57.007Z,4.38
2023-01-13T10:31:25.101Z,4.25
2023-01-13T10:34:00.186Z,4.20
2023-01-13T10:36:28.017Z,4.35
2023-01-13T10:39:09.115Z,4.10
2023-01-13T10:41:36.088Z,4.63
2023-01-13T10:44:14.264Z,4.30
2023-01-13T10:46:56.060Z,4.40
2023-01-13T10:49:29.997Z,4.63
2023-01-13T10:51:57.525Z,4.63
2023-01-13T10:54:25.922Z,4.60
2023-01-13T10:57:32.237Z,4.50
2023-01-13T11:00:04.864Z,4.50
2023-01-13T11:02:35.039Z,4.50
2023-01-13T11:05:22.052Z,4.45
2023-01-13T11:07:55.422Z,4.82
2023-01-13T11:10:26.973Z,4.68
2023-01-13T11:13:03.052Z,5.53
2023-01-13T11:15:46.811Z,4.82
2023-01-13T11:18:58.750Z,5.13
2023-01-13T11:21:36.302Z,4.53
2023-01-13T11:24:41.074Z,4.90
2023-01-13T11:27:13.605Z,4.57
2023-01-13T11:29:58.562Z,4.90
2023-01-13T11:32:27.355Z,4.30
2023-01-13T11:35:02.190Z,4.38
2023-01-13T11:37:32.873Z,4.53
2023-01-13T11:40:25.074Z,4.70
2023-01-13T11:43:17.404Z,4.80
2023-01-13T11:45:52.041Z,4.53
2023-01-13T11:48:22.974Z,4.38
2023-01-13T11:51:00.194Z,4.25
2023-01-13T11:53:48.013Z,4.37
2023-01-13T11:56:46.119Z,4.13
2023-01-13T11:59:16.493Z,4.60
2023-01-13T12:02:23.084Z,4.95
2023-01-13T12:05:11.078Z,4.30
2023-01-13T12:08:05.013Z,4.43
2023-01-13T12:11:15.078Z,5.05
2023-01-13T12:13:47.106Z,4.57
2023-01-13T12:16:25.206Z,4.35
2023-01-13T12:19:22.607Z,4.30
2023-01-13T12:21:58.229Z,4.67
2023-01-13T12:24:41.160Z,4.07
2023-01-13T12:27:37.700Z,4.20
2023-01-13T12:30:26.128Z,3.90
2023-01-13T12:32:57.178Z,3.83
2023-01-13T12:35:42.981Z,4.60
2023-01-13T12:38:23.726Z,4.20
2023-01-13T12:41:39.997Z,3.90
2023-01-13T12:44:08.891Z,4.07
2023-01-13T12:46:46.105Z,4.32
2023-01-13T12:49:25.135Z,3.97
2023-01-13T12:51:51.921Z,4.10
2023-01-13T12:54:37.578Z,4.03
2023-01-13T12:57:17.072Z,3.90
2023-01-13T13:00:05.839Z,3.78
2023-01-13T13:02:35.114Z,3.63
2023-01-13T13:05:24.389Z,3.45
2023-01-13T13:08:24.340Z,3.20
2023-01-13T13:11:18.408Z,3.10
2023-01-13T13:13:48.829Z,3.00
2023-01-13T13:16:52.675Z,2.50
2023-01-13T13:19:20.398Z,2.50
2023-01-13T13:22:15.949Z,2.60
2023-01-13T13:25:03.903Z,2.75
2023-01-13T13:27:43.110Z,2.47
2023-01-13T13:30:25.358Z,2.77
2023-01-13T13:33:34.088Z,2.63
2023-01-13T13:36:20.867Z,2.72
2023-01-13T13:39:17.990Z,2.78
2023-01-13T13:41:48.195Z,3.00
2023-01-13T13:47:21.992Z,2.72
2023-01-13T13:49:51.941Z,2.80
2023-01-13T13:52:45.114Z,3.20
2023-01-13T13:55:23.636Z,2.95
2023-01-13T13:57:55.792Z,3.43
2023-01-13T14:00:23.409Z,3.13
2023-01-13T14:02:54.922Z,3.33
2023-01-13T14:05:29.881Z,3.10
2023-01-13T14:08:23.087Z,3.17
2023-01-13T14:11:30.390Z,3.53
2023-01-13T14:14:15.014Z,3.45
2023-01-13T14:16:42.820Z,3.40
2023-01-13T14:19:32.843Z,3.58
2023-01-13T14:22:25.485Z,2.95
2023-01-13T14:24:53.974Z,3.40
2023-01-13T14:27:21.941Z,3.30
2023-01-13T14:29:51.790Z,3.42
2023-01-13T14:32:23.917Z,4.10
2023-01-13T14:34:51.834Z,4.25
2023-01-13T14:40:35.066Z,4.07
2023-01-13T14:43:12.231Z,6.70
2023-01-13T14:45:55.490Z,4.30
2023-01-13T14:48:27.523Z,4.07
2023-01-13T14:50:54.350Z,4.40
2023-01-13T14:56:43.029Z,5.00
2023-01-13T14:59:32.161Z,4.55
2023-01-13T15:02:00.008Z,4.70
2023-01-13T15:04:32.467Z,4.30
2023-01-13T15:07:02.883Z,5.00
2023-01-13T15:09:38.853Z,4.75
2023-01-13T15:15:40.058Z,4.63
2023-01-13T15:18:16.145Z,4.77
2023-01-13T15:20:43.147Z,5.07
2023-01-13T15:23:10.736Z,5.40
2023-01-13T15:25:40.919Z,5.20
2023-01-13T15:28:20.951Z,5.10
2023-01-13T15:30:50.317Z,5.47
2023-01-13T15:33:18.327Z,5.38
2023-01-13T15:36:26.092Z,5.45
2023-01-13T15:38:54.931Z,6.15
2023-01-13T15:41:23.480Z,5.38
2023-01-13T15:43:50.267Z,5.60
2023-01-13T15:46:18.926Z,5.70
2023-01-13T15:48:50.619Z,5.97
2023-01-13T15:51:23.581Z,6.13
2023-01-13T15:53:50.404Z,5.82
2023-01-13T15:56:26.920Z,5.87
2023-01-13T15:58:53.982Z,6.30
2023-01-13T16:01:46.166Z,6.20
2023-01-13T16:04:13.289Z,6.45
2023-01-13T16:06:40.961Z,6.88
2023-01-13T16:09:12.443Z,6.17
2023-01-13T16:11:40.393Z,6.55
2023-01-13T16:14:07.436Z,6.60
2023-01-13T16:16:35.949Z,7.18
2023-01-13T16:19:02.992Z,7.07
2023-01-13T16:21:30.933Z,6.37
2023-01-13T16:24:23.020Z,6.40
2023-01-13T16:26:49.929Z,6.82
2023-01-13T16:29:17.298Z,6.50
2023-01-13T16:31:45.970Z,6.53
2023-01-13T16:34:13.387Z,6.87
2023-01-13T16:36:40.269Z,6.53
2023-01-13T16:39:20.142Z,6.53
2023-01-13T16:41:47.951Z,7.25
2023-01-13T16:44:15.555Z,9.02
2023-01-13T16:46:44.991Z,8.77
2023-01-13T16:49:16.716Z,8.68
2023-01-13T16:51:43.931Z,7.80
2023-01-13T16:54:11.406Z,7.28
2023-01-13T16:59:29.347Z,7.40
2023-01-13T17:01:57.443Z,7.47
2023-01-13T17:04:25.505Z,8.50
2023-01-13T17:07:03.012Z,8.20
2023-01-13T17:09:31.236Z,7.85
2023-01-13T17:11:59.320Z,8.10
2023-01-13T17:14:27.450Z,7.93
2023-01-13T17:16:58.554Z,7.47
2023-01-13T17:19:26.061Z,7.70
2023-01-13T17:21:53.938Z,8.38
2023-01-13T17:24:22.391Z,7.90
2023-01-13T17:26:52.544Z,7.85
2023-01-13T17:29:23.990Z,8.40
2023-01-13T17:31:53.445Z,7.68
2023-01-13T17:34:21.605Z,7.85
2023-01-13T17:42:59.296Z,7.63
2023-01-13T17:45:26.548Z,7.32
2023-01-13T17:47:59.409Z,7.35
2023-01-13T17:50:27.549Z,7.60
2023-01-13T17:52:54.443Z,7.70
2023-01-13T17:55:21.553Z,8.32
2023-01-13T17:57:49.570Z,7.15
2023-01-13T18:00:42.993Z,7.70
2023-01-13T18:03:12.611Z,7.27
2023-01-13T18:06:10.061Z,7.43
2023-01-13T18:08:39.713Z,7.63
2023-01-13T18:11:07.166Z,7.00
2023-01-13T18:13:36.284Z,6.60
2023-01-13T18:16:09.415Z,6.93
2023-01-13T18:18:37.171Z,6.28
2023-01-13T18:21:09.151Z,7.10
2023-01-13T18:23:40.386Z,6.72
2023-01-13T18:26:15.592Z,7.75
2023-01-13T18:28:43.317Z,7.40
2023-01-13T18:31:10.964Z,7.63
2023-01-13T18:33:39.076Z,8.10
2023-01-13T18:36:07.976Z,8.43
2023-01-13T18:38:36.015Z,8.10
2023-01-13T18:41:09.051Z,7.63
2023-01-13T18:43:36.174Z,7.57
2023-01-13T18:46:04.561Z,7.65
2023-01-13T18:48:36.487Z,7.07
2023-01-13T18:51:04.124Z,7.22
2023-01-13T18:53:31.042Z,6.83
2023-01-13T18:56:01.505Z,6.45
2023-01-13T18:58:29.058Z,7.43
2023-01-13T19:01:01.880Z,7.28
2023-01-13T19:03:30.729Z,6.97
2023-01-13T19:06:05.071Z,7.03
2023-01-13T19:08:33.326Z,7.43
2023-01-13T19:11:05.267Z,6.97
2023-01-13T19:13:35.008Z,6.85
2023-01-13T19:16:08.719Z,7.35
2023-01-13T19:18:38.008Z,6.87
2023-01-13T19:21:06.938Z,7.03
2023-01-13T19:23:36.384Z,7.25
2023-01-13T19:26:07.988Z,6.63
2023-01-13T19:28:36.675Z,6.75
2023-01-13T19:31:06.737Z,6.53
2023-01-13T19:33:40.995Z,6.80
2023-01-13T19:36:08.748Z,0.70
2023-01-13T19:38:37.645Z,0.00
2023-01-13T19:41:09.724Z,0.00
2023-01-13T19:43:45.368Z,0.00
2023-01-13T19:46:15.721Z,0.00
2023-01-13T19:48:43.259Z,0.00
2023-01-13T19:51:10.260Z,0.00
2023-01-13T19:53:38.762Z,0.00
2023-01-13T19:56:14.466Z,0.00
2023-01-13T19:58:42.965Z,0.00
2023-01-13T20:01:12.312Z,0.10
2023-01-13T20:03:42.255Z,0.05
2023-01-13T20:06:14.130Z,0.00
2023-01-13T20:08:41.059Z,0.00
2023-01-13T20:11:11.178Z,0.00
2023-01-13T20:13:38.531Z,0.00
2023-01-13T20:16:05.978Z,0.00
2023-01-13T20:18:34.047Z,0.00
2023-01-13T20:21:04.706Z,0.00
2023-01-13T20:23:33.245Z,0.00
2023-01-13T20:26:02.477Z,0.00
2023-01-13T20:28:29.675Z,0.00
2023-01-13T20:30:57.285Z,0.10
2023-01-13T20:33:24.318Z,0.00
2023-01-13T20:35:58.563Z,0.00
2023-01-13T20:38:26.515Z,0.00
2023-01-13T20:43:55.182Z,0.00
2023-01-13T20:46:23.187Z,0.00
2023-01-13T20:48:50.409Z,0.00
2023-01-13T20:51:18.741Z,0.00
2023-01-13T20:53:46.198Z,0.00
2023-01-13T20:56:14.542Z,0.00
2023-01-13T20:58:41.550Z,0.00
2023-01-13T21:01:08.631Z,0.00
2023-01-13T21:03:35.595Z,0.00
2023-01-13T21:06:02.403Z,0.00
2023-01-13T21:08:31.308Z,0.00
2023-01-13T21:11:06.009Z,0.00
2023-01-13T21:13:58.814Z,0.00
2023-01-13T21:16:27.685Z,0.00
2023-01-13T21:18:54.599Z,0.00
2023-01-13T21:21:24.982Z,0.00
2023-01-13T21:23:53.280Z,0.00
2023-01-13T21:26:22.236Z,0.00
2023-01-13T21:28:50.545Z,0.00
2023-01-13T21:31:18.061Z,0.00
2023-01-13T21:33:45.191Z,0.00
2023-01-13T21:36:16.892Z,0.00
2023-01-13T21:38:50.982Z,0.00
2023-01-13T21:41:18.557Z,0.00
2023-01-13T21:43:46.335Z,0.00
2023-01-13T21:46:16.390Z,0.00
2023-01-13T21:48:45.029Z,0.00
2023-01-13T21:51:37.276Z,0.00
2023-01-13T21:54:05.032Z,0.00
2023-01-13T21:56:32.473Z,0.00
2023-01-13T21:58:59.921Z,0.00
2023-01-13T22:01:28.892Z,0.00
2023-01-13T22:03:55.976Z,0.00
2023-01-13T22:06:24.058Z,0.00
2023-01-13T22:08:50.933Z,0.00
2023-01-13T22:11:18.034Z,0.00
2023-01-13T22:13:47.984Z,0.00
2023-01-13T22:16:15.271Z,0.00
2023-01-13T22:18:42.091Z,0.00
2023-01-13T22:21:09.231Z,0.00
2023-01-13T22:23:36.706Z,0.00
2023-01-13T22:26:05.653Z,0.00
2023-01-13T22:28:32.533Z,0.00
2023-01-13T22:30:59.622Z,0.00
2023-01-13T22:33:29.069Z,0.00
2023-01-13T22:35:56.524Z,0.00
2023-01-13T22:38:23.377Z,0.00
2023-01-13T22:41:01.793Z,0.00
2023-01-13T22:43:30.407Z,0.00
2023-01-13T22:46:05.845Z,0.00
2023-01-13T22:48:57.976Z,0.05
2023-01-13T22:51:25.119Z,0.00
2023-01-13T22:53:57.095Z,0.10
2023-01-13T22:56:26.138Z,0.00
2023-01-13T22:58:59.504Z,0.10
2023-01-13T23:04:20.781Z,0.00
2023-01-13T23:06:47.710Z,0.00
2023-01-13T23:09:14.644Z,0.15
2023-01-13T23:11:42.097Z,0.20
2023-01-13T23:14:11.020Z,0.00
2023-01-13T23:16:39.697Z,0.00
2023-01-13T23:19:08.337Z,0.00
2023-01-13T23:21:37.590Z,0.00
2023-01-13T23:24:06.390Z,0.00
2023-01-13T23:26:34.101Z,0.00
2023-01-13T23:29:09.074Z,0.00
2023-01-13T23:31:36.034Z,0.00
2023-01-13T23:34:03.023Z,0.03
2023-01-13T23:36:30.175Z,0.00
2023-01-13T23:38:59.217Z,0.10
2023-01-13T23:41:29.703Z,0.00
2023-01-13T23:43:59.706Z,0.00
2023-01-13T23:46:32.230Z,0.00
2023-01-13T23:49:00.938Z,0.00
2023-01-13T23:51:28.545Z,0.00
2023-01-13T23:56:51.040Z,0.00
2023-01-13T23:59:20.280Z,0.00
